Time;durP1;ratioP1;P1;durP2;ratioP2;P2;SDS_P1;SDS_P2;PMS_P1;PMS_P2;Temp;Humidity;BMP_temperature;BMP_pressure;BME280_temperature;BME280_humidity;BME280_pressure;Samples;Min_cycle;Max_cycle;Signal;HPM_P1;HPM_P2
2022/10/03 00:00:30;;;;;;;13.23;3.97;;;10.80;99.90;;;;;;5026361;28;20545;-76
2022/10/03 00:03:29;;;;;;;12.70;3.37;;;10.80;99.90;;;;;;5026472;28;20280;-75
2022/10/03 00:06:10;;;;;;;9.67;3.13;;;10.80;99.90;;;;;;5027881;28;20215;-78
2022/10/03 00:08:51;;;;;;;13.57;3.20;;;10.80;99.90;;;;;;5023977;28;20252;-78
2022/10/03 00:11:38;;;;;;;10.77;2.33;;;10.80;99.90;;;;;;5026094;28;20185;-77
2022/10/03 00:14:16;;;;;;;15.00;3.33;;;10.80;99.90;;;;;;5024447;28;20180;-75
2022/10/03 00:16:57;;;;;;;14.13;2.67;;;10.80;99.90;;;;;;5021457;28;20210;-76
2022/10/03 00:19:45;;;;;;;13.07;3.03;;;10.90;99.90;;;;;;5025112;28;20201;-79
2022/10/03 00:22:20;;;;;;;13.87;2.90;;;10.90;99.90;;;;;;5017419;28;20288;-82
2022/10/03 00:25:04;;;;;;;12.50;3.03;;;10.90;99.90;;;;;;5028024;28;20182;-80
2022/10/03 00:27:43;;;;;;;9.40;2.30;;;11.00;99.90;;;;;;5023489;28;20212;-82
2022/10/03 00:30:23;;;;;;;9.87;3.33;;;11.00;99.90;;;;;;5028228;28;20189;-81
2022/10/03 00:33:11;;;;;;;13.67;3.17;;;11.00;99.90;;;;;;5030918;28;20201;-80
2022/10/03 00:35:47;;;;;;;12.53;3.40;;;11.00;99.90;;;;;;5023661;28;20209;-79
2022/10/03 00:38:46;;;;;;;13.03;4.03;;;11.10;99.90;;;;;;5020844;28;20291;-82
2022/10/03 00:41:26;;;;;;;14.13;3.17;;;11.10;99.90;;;;;;5026740;28;20229;-77
2022/10/03 00:44:13;;;;;;;9.20;2.67;;;11.10;99.90;;;;;;5023104;28;20248;-78
2022/10/03 00:47:20;;;;;;;11.13;3.40;;;11.20;99.90;;;;;;5023556;28;20191;-78
2022/10/03 00:50:17;;;;;;;14.93;3.40;;;11.20;99.90;;;;;;5024717;28;20303;-79
2022/10/03 00:52:48;;;;;;;12.73;3.97;;;11.10;99.90;;;;;;5020147;28;20302;-78
2022/10/03 00:55:31;;;;;;;10.03;2.97;;;11.10;99.90;;;;;;5026613;28;20188;-76
2022/10/03 00:58:14;;;;;;;10.67;2.87;;;11.10;99.90;;;;;;5022332;28;20706;-75
2022/10/03 01:00:43;;;;;;;7.90;2.57;;;11.00;99.90;;;;;;5025453;28;20184;-79
2022/10/03 01:03:32;;;;;;;8.17;2.33;;;11.00;99.90;;;;;;5026206;28;20208;-80
2022/10/03 01:06:25;;;;;;;15.00;3.60;;;10.90;99.90;;;;;;5025557;28;20192;-81
2022/10/03 01:09:05;;;;;;;11.10;2.57;;;11.00;99.90;;;;;;5017687;28;20279;-75
2022/10/03 01:12:08;;;;;;;8.50;2.97;;;11.00;99.90;;;;;;5020560;28;20650;-69
2022/10/03 01:14:55;;;;;;;16.37;2.93;;;11.00;99.90;;;;;;5021148;28;20185;-76
2022/10/03 01:17:32;;;;;;;13.40;3.50;;;11.00;99.90;;;;;;5022951;28;20563;-68
2022/10/03 01:20:09;;;;;;;11.53;3.10;;;11.00;99.90;;;;;;5023051;28;20197;-68
2022/10/03 01:23:13;;;;;;;9.93;2.70;;;10.90;99.90;;;;;;5023757;28;20709;-68
2022/10/03 01:26:18;;;;;;;8.17;2.97;;;11.00;99.90;;;;;;5018704;28;20512;-68
2022/10/03 01:32:01;;;;;;;9.60;3.00;;;11.10;99.90;;;;;;5018987;28;20186;-69
2022/10/03 01:34:45;;;;;;;8.87;2.67;;;11.10;99.90;;;;;;5019876;28;20284;-68
2022/10/03 01:37:22;;;;;;;14.30;3.20;;;11.10;99.90;;;;;;5020271;28;20709;-68
2022/10/03 01:40:25;;;;;;;13.80;3.67;;;11.10;99.90;;;;;;5015214;28;20189;-69
2022/10/03 01:43:12;;;;;;;11.70;3.40;;;11.20;99.90;;;;;;5020107;28;20706;-68
2022/10/03 01:46:04;;;;;;;11.07;2.90;;;11.20;99.90;;;;;;5025843;28;20216;-75
2022/10/03 01:48:44;;;;;;;18.07;3.43;;;11.20;99.90;;;;;;5024285;28;20214;-69
2022/10/03 01:51:41;;;;;;;10.07;2.17;;;11.20;99.90;;;;;;5027856;28;20610;-74
2022/10/03 01:54:22;;;;;;;6.37;2.40;;;11.20;99.90;;;;;;5020858;28;20287;-70
2022/10/03 01:57:00;;;;;;;7.43;2.33;;;11.30;99.90;;;;;;5023408;28;20194;-68
2022/10/03 01:59:29;;;;;;;11.43;2.50;;;11.30;99.90;;;;;;5024103;28;20573;-68
2022/10/03 02:02:08;;;;;;;15.63;3.10;;;11.30;99.90;;;;;;5031091;28;21024;-68
2022/10/03 02:04:36;;;;;;;9.53;2.63;;;11.30;99.90;;;;;;5022863;28;20514;-68
2022/10/03 02:07:39;;;;;;;7.80;2.07;;;11.30;99.90;;;;;;5027402;28;20199;-69
2022/10/03 02:10:43;;;;;;;13.77;3.40;;;11.40;99.90;;;;;;5023986;28;20194;-69
2022/10/03 02:13:21;;;;;;;5.90;2.27;;;11.40;99.90;;;;;;5012554;28;20614;-68
2022/10/03 02:15:55;;;;;;;17.27;3.47;;;11.40;99.90;;;;;;5022193;28;20631;-68
2022/10/03 02:18:44;;;;;;;9.43;2.50;;;11.40;99.90;;;;;;5014389;28;20212;-68
2022/10/03 02:21:20;;;;;;;11.57;2.70;;;11.50;99.90;;;;;;5024500;28;20659;-69
2022/10/03 02:23:47;;;;;;;11.93;3.77;;;11.50;99.90;;;;;;5020716;28;20227;-82
2022/10/03 02:26:44;;;;;;;16.73;2.80;;;11.50;99.90;;;;;;5030529;28;20239;-70
2022/10/03 02:29:32;;;;;;;11.47;2.33;;;11.60;99.90;;;;;;5019492;28;20227;-77
2022/10/03 02:32:35;;;;;;;15.47;2.70;;;11.60;99.90;;;;;;5024839;28;20178;-68
2022/10/03 02:35:09;;;;;;;9.20;2.93;;;11.60;99.90;;;;;;5023075;28;20245;-68
2022/10/03 02:37:57;;;;;;;10.33;3.17;;;11.60;99.90;;;;;;5027113;28;20197;-68
2022/10/03 02:40:47;;;;;;;6.00;2.27;;;11.60;99.90;;;;;;5028241;28;20722;-68
2022/10/03 02:43:50;;;;;;;13.70;2.83;;;11.60;99.90;;;;;;5021415;28;20218;-68
2022/10/03 02:46:34;;;;;;;10.10;3.20;;;11.60;99.90;;;;;;5029601;28;20218;-68
2022/10/03 02:49:18;;;;;;;8.37;2.40;;;11.60;99.90;;;;;;5010874;28;20217;-68
2022/10/03 02:52:25;;;;;;;12.00;2.60;;;11.60;99.90;;;;;;5032214;28;20330;-69
2022/10/03 02:54:55;;;;;;;12.43;2.73;;;11.50;99.90;;;;;;5024492;28;20188;-69
2022/10/03 02:57:44;;;;;;;7.27;2.70;;;11.50;99.90;;;;;;5024468;28;20192;-68
2022/10/03 03:00:30;;;;;;;7.83;2.33;;;11.50;99.90;;;;;;5024959;28;20181;-68
2022/10/03 03:03:43;;;;;;;8.03;2.73;;;11.50;99.90;;;;;;5021943;28;20640;-69
2022/10/03 03:06:29;;;;;;;13.20;2.97;;;11.50;99.90;;;;;;5024506;28;20185;-69
2022/10/03 03:09:16;;;;;;;9.30;2.97;;;11.50;99.90;;;;;;5015537;28;20212;-69
2022/10/03 03:12:33;;;;;;;9.70;2.87;;;11.50;99.90;;;;;;5021477;28;20181;-78
2022/10/03 03:15:29;;;;;;;11.93;2.77;;;11.50;99.90;;;;;;5024779;28;20180;-69
2022/10/03 03:18:11;;;;;;;12.10;2.30;;;11.50;99.90;;;;;;5021985;28;20209;-69
2022/10/03 03:20:59;;;;;;;10.27;3.23;;;11.50;99.90;;;;;;5026348;28;20318;-69
2022/10/03 03:23:45;;;;;;;9.03;3.47;;;11.40;99.90;;;;;;5025937;28;20728;-68
2022/10/03 03:26:35;;;;;;;7.80;3.23;;;11.40;99.90;;;;;;5025531;28;20278;-69
2022/10/03 03:29:17;;;;;;;12.77;3.23;;;11.40;99.90;;;;;;5026655;28;20326;-70
2022/10/03 03:31:55;;;;;;;8.17;2.87;;;11.50;99.90;;;;;;5026845;28;20182;-68
2022/10/03 03:34:29;;;;;;;9.73;2.87;;;11.50;99.90;;;;;;5023800;28;20192;-69
2022/10/03 03:37:07;;;;;;;9.87;2.53;;;11.50;99.90;;;;;;5026011;28;20646;-69
2022/10/03 03:40:06;;;;;;;9.77;2.50;;;11.50;99.90;;;;;;5025540;28;20206;-68
2022/10/03 03:42:46;;;;;;;11.47;3.03;;;11.50;99.90;;;;;;5023826;28;20189;-68
2022/10/03 03:45:22;;;;;;;8.70;2.60;;;11.50;99.90;;;;;;5028104;28;20174;-69
2022/10/03 03:48:11;;;;;;;13.23;2.97;;;11.50;99.90;;;;;;5025581;28;20256;-70
2022/10/03 03:51:01;;;;;;;8.00;2.73;;;11.50;99.90;;;;;;5027813;28;20175;-70
2022/10/03 03:53:48;;;;;;;10.97;2.67;;;11.50;99.90;;;;;;5025329;28;20584;-69
2022/10/03 03:56:41;;;;;;;8.03;2.87;;;11.50;99.90;;;;;;5025002;28;20235;-69
2022/10/03 03:59:16;;;;;;;11.00;2.17;;;11.50;99.90;;;;;;5022451;28;20613;-69
2022/10/03 04:02:26;;;;;;;8.33;2.50;;;11.50;99.90;;;;;;5027572;28;20179;-68
2022/10/03 04:05:20;;;;;;;12.10;2.67;;;11.50;99.90;;;;;;5023435;28;20220;-69
2022/10/03 04:08:12;;;;;;;9.57;3.27;;;11.50;99.90;;;;;;5013087;28;20216;-69
2022/10/03 04:11:12;;;;;;;10.20;2.97;;;11.50;99.90;;;;;;5026404;28;20299;-69
2022/10/03 04:13:46;;;;;;;12.43;2.10;;;11.50;99.90;;;;;;5020761;28;20254;-68
2022/10/03 04:19:52;;;;;;;11.27;2.70;;;11.50;99.90;;;;;;5025652;28;20279;-68
2022/10/03 04:22:29;;;;;;;13.57;3.17;;;11.50;99.90;;;;;;5027635;28;20186;-69
2022/10/03 04:25:14;;;;;;;10.23;2.43;;;11.50;99.90;;;;;;5021176;28;20189;-69
2022/10/03 04:28:04;;;;;;;13.20;3.00;;;11.50;99.90;;;;;;5015609;28;20186;-70
2022/10/03 04:31:03;;;;;;;8.00;2.77;;;11.50;99.90;;;;;;5008954;28;20175;-70
2022/10/03 04:33:49;;;;;;;10.97;2.67;;;11.50;99.90;;;;;;5020252;28;20873;-70
2022/10/03 04:37:02;;;;;;;13.73;3.33;;;11.50;99.90;;;;;;5015241;28;20952;-68
2022/10/03 04:39:44;;;;;;;6.00;2.83;;;11.40;99.90;;;;;;4982307;28;20202;-67
2022/10/03 04:42:26;;;;;;;8.67;2.47;;;11.40;99.90;;;;;;5011476;28;20187;-68
2022/10/03 04:45:06;;;;;;;10.27;3.00;;;11.40;99.90;;;;;;5007347;28;20313;-68
2022/10/03 04:47:49;;;;;;;14.63;3.47;;;11.40;99.90;;;;;;5007114;28;20179;-67
2022/10/03 04:50:43;;;;;;;8.17;2.90;;;11.40;99.90;;;;;;5010071;28;20176;-68
2022/10/03 04:53:17;;;;;;;7.50;2.27;;;11.40;99.90;;;;;;5008878;28;20640;-69
2022/10/03 04:55:50;;;;;;;10.20;2.77;;;11.30;99.90;;;;;;5009480;28;20210;-68
2022/10/03 04:58:55;;;;;;;13.50;2.87;;;11.30;99.90;;;;;;5008982;28;20209;-68
2022/10/03 05:01:31;;;;;;;10.33;2.70;;;11.30;99.90;;;;;;5009509;28;20185;-68
2022/10/03 05:04:01;;;;;;;11.30;2.90;;;11.30;99.90;;;;;;5012400;28;20571;-68
2022/10/03 05:06:57;;;;;;;11.60;2.93;;;11.30;99.90;;;;;;5019633;28;20189;-67
2022/10/03 05:09:58;;;;;;;10.40;2.57;;;11.40;99.90;;;;;;5016675;28;20312;-68
2022/10/03 05:12:49;;;;;;;6.77;1.90;;;11.40;99.90;;;;;;5021550;28;20185;-68
2022/10/03 05:15:26;;;;;;;13.77;2.40;;;11.40;99.90;;;;;;5024127;28;20189;-67
2022/10/03 05:18:17;;;;;;;15.83;3.50;;;11.40;99.90;;;;;;5021146;28;20259;-69
2022/10/03 05:20:58;;;;;;;13.57;2.80;;;11.40;99.90;;;;;;5022899;28;20765;-68
2022/10/03 05:24:03;;;;;;;8.40;2.73;;;11.40;99.90;;;;;;5024474;28;20654;-68
2022/10/03 05:26:37;;;;;;;8.00;2.67;;;11.40;99.90;;;;;;5024706;28;20189;-68
2022/10/03 05:29:31;;;;;;;10.13;3.17;;;11.40;99.90;;;;;;5022744;28;20327;-68
2022/10/03 05:32:24;;;;;;;6.50;2.53;;;11.40;99.90;;;;;;5021313;28;20228;-69
2022/10/03 05:35:18;;;;;;;9.70;2.77;;;11.50;99.90;;;;;;5019893;28;20198;-68
2022/10/03 05:38:15;;;;;;;8.83;1.80;;;11.50;99.90;;;;;;5020399;28;20664;-68
2022/10/03 05:41:00;;;;;;;12.57;2.83;;;11.50;99.90;;;;;;5021927;28;20184;-68
2022/10/03 05:43:45;;;;;;;8.97;2.50;;;11.50;99.90;;;;;;5018720;28;20203;-68
2022/10/03 05:46:37;;;;;;;10.13;2.40;;;11.50;99.90;;;;;;5022095;28;20281;-68
2022/10/03 05:49:38;;;;;;;9.63;2.73;;;11.50;99.90;;;;;;5015508;28;20226;-68
2022/10/03 05:52:31;;;;;;;12.87;2.30;;;11.50;99.90;;;;;;5025550;28;20308;-70
2022/10/03 05:55:09;;;;;;;8.77;2.80;;;11.50;99.90;;;;;;5018172;28;20196;-70
2022/10/03 05:58:04;;;;;;;14.73;2.63;;;11.50;99.90;;;;;;5021662;28;20180;-69
2022/10/03 06:01:04;;;;;;;7.37;2.07;;;11.50;99.90;;;;;;5023683;28;20272;-69
2022/10/03 06:03:50;;;;;;;7.87;2.53;;;11.50;99.90;;;;;;5017967;28;20205;-70
2022/10/03 06:06:42;;;;;;;3.13;1.63;;;11.50;99.90;;;;;;5019485;28;20779;-70
2022/10/03 06:09:29;;;;;;;14.63;2.57;;;11.50;99.90;;;;;;5021223;28;20229;-70
2022/10/03 06:12:03;;;;;;;13.60;3.07;;;11.50;99.90;;;;;;5015483;28;20284;-70
2022/10/03 06:14:33;;;;;;;10.23;2.33;;;11.60;99.90;;;;;;5018322;28;20231;-70
2022/10/03 06:17:08;;;;;;;9.97;2.90;;;11.60;99.90;;;;;;5025066;28;20223;-70
2022/10/03 06:19:57;;;;;;;7.23;2.47;;;11.60;99.90;;;;;;5019555;28;20209;-70
2022/10/03 06:22:43;;;;;;;16.27;3.37;;;11.60;99.90;;;;;;5025457;28;20207;-70
2022/10/03 06:25:35;;;;;;;10.23;2.53;;;11.60;99.90;;;;;;5021044;28;20219;-70
2022/10/03 06:28:34;;;;;;;6.97;2.37;;;11.60;99.90;;;;;;5017947;28;20414;-71
2022/10/03 06:31:26;;;;;;;11.53;2.27;;;11.70;99.90;;;;;;5025155;28;20220;-70
2022/10/03 06:34:19;;;;;;;8.97;2.63;;;11.70;99.90;;;;;;5020883;28;20695;-70
2022/10/03 06:37:23;;;;;;;9.33;2.70;;;11.70;99.90;;;;;;5025701;28;20197;-70
2022/10/03 06:40:47;;;;;;;9.43;2.77;;;11.70;99.90;;;;;;5019602;28;20210;-70
2022/10/03 06:43:45;;;;;;;6.30;2.23;;;11.80;99.90;;;;;;5020135;28;20647;-70
2022/10/03 06:46:37;;;;;;;8.53;2.80;;;11.80;99.90;;;;;;5017762;28;20596;-70
2022/10/03 06:49:28;;;;;;;15.10;2.90;;;11.80;99.90;;;;;;5022489;28;20716;-70
2022/10/03 06:52:34;;;;;;;11.13;2.17;;;11.90;99.90;;;;;;5025367;28;20237;-70
2022/10/03 06:55:37;;;;;;;8.37;2.30;;;11.90;99.90;;;;;;5020549;28;20199;-71
2022/10/03 06:58:41;;;;;;;8.37;2.03;;;11.90;99.90;;;;;;5023171;28;20196;-70
2022/10/03 07:01:56;;;;;;;9.63;2.77;;;11.90;99.90;;;;;;5015525;28;20182;-71
2022/10/03 07:04:50;;;;;;;16.20;2.80;;;11.90;99.90;;;;;;5016301;28;20243;-70
2022/10/03 07:07:48;;;;;;;11.80;2.40;;;12.00;99.90;;;;;;5021882;28;20272;-70
2022/10/03 07:10:39;;;;;;;10.43;2.40;;;12.10;99.90;;;;;;5017980;28;20567;-70
2022/10/03 07:13:15;;;;;;;11.93;3.30;;;12.20;99.90;;;;;;5021047;28;20175;-70
2022/10/03 07:16:35;;;;;;;9.23;2.80;;;12.20;99.90;;;;;;5024559;28;20272;-71
2022/10/03 07:19:18;;;;;;;10.50;2.60;;;12.30;99.90;;;;;;4987863;28;20209;-71
2022/10/03 07:22:26;;;;;;;9.13;2.40;;;12.50;99.90;;;;;;5015829;28;20531;-71
2022/10/03 07:25:22;;;;;;;8.43;3.07;;;12.60;99.90;;;;;;5019075;28;20205;-72
2022/10/03 07:28:21;;;;;;;16.33;2.87;;;12.60;99.90;;;;;;5018309;28;20188;-70
2022/10/03 07:31:12;;;;;;;9.37;2.27;;;12.60;99.90;;;;;;5024460;28;20186;-70
2022/10/03 07:34:15;;;;;;;10.67;2.17;;;12.50;99.90;;;;;;5018805;28;20195;-70
2022/10/03 07:40:07;;;;;;;7.90;2.30;;;12.50;99.90;;;;;;5013304;28;20278;-74
2022/10/03 07:43:14;;;;;;;9.00;2.53;;;12.50;99.90;;;;;;5023191;28;20275;-70
2022/10/03 07:45:44;;;;;;;11.10;2.57;;;12.70;99.90;;;;;;5021763;28;20189;-69
2022/10/03 07:48:34;;;;;;;5.23;2.07;;;12.80;99.90;;;;;;5026938;28;20207;-69
2022/10/03 07:51:20;;;;;;;4.97;1.77;;;13.00;99.90;;;;;;5023932;28;20218;-69
2022/10/03 07:54:09;;;;;;;12.60;2.73;;;13.10;99.90;;;;;;5020453;28;20604;-69
2022/10/03 07:56:54;;;;;;;7.03;2.50;;;13.20;99.90;;;;;;5022437;28;20300;-69
2022/10/03 08:00:02;;;;;;;6.90;2.27;;;13.30;99.90;;;;;;5015594;28;20246;-69
2022/10/03 08:02:39;;;;;;;8.03;2.90;;;13.30;99.90;;;;;;5023764;28;20184;-69
2022/10/03 08:05:35;;;;;;;7.43;1.87;;;13.30;99.90;;;;;;5019384;28;20662;-69
2022/10/03 08:08:19;;;;;;;14.20;2.63;;;13.30;99.90;;;;;;5027373;28;20199;-69
2022/10/03 08:11:14;;;;;;;9.90;2.13;;;13.30;99.90;;;;;;5025058;28;20176;-69
2022/10/03 08:14:00;;;;;;;9.60;2.47;;;13.20;99.90;;;;;;5024603;28;20199;-69
2022/10/03 08:17:15;;;;;;;7.23;1.70;;;13.20;99.90;;;;;;5026262;28;20249;-70
2022/10/03 08:19:59;;;;;;;9.23;2.60;;;13.20;99.90;;;;;;5017525;28;20202;-70
2022/10/03 08:22:53;;;;;;;7.83;2.30;;;13.40;99.90;;;;;;5021005;28;20261;-70
2022/10/03 08:25:29;;;;;;;13.57;3.23;;;13.60;99.90;;;;;;5018873;28;20215;-70
2022/10/03 08:28:16;;;;;;;9.03;2.30;;;13.90;99.90;;;;;;5018280;28;20213;-70
2022/10/03 08:31:06;;;;;;;7.87;1.93;;;14.00;99.90;;;;;;5019788;28;20188;-70
2022/10/03 08:33:55;;;;;;;13.23;2.37;;;14.00;99.90;;;;;;5022939;28;20187;-70
2022/10/03 08:36:58;;;;;;;8.07;2.20;;;13.90;99.90;;;;;;5021868;28;20189;-70
2022/10/03 08:40:01;;;;;;;7.60;2.80;;;13.90;99.90;;;;;;5028588;28;20289;-71
2022/10/03 08:43:05;;;;;;;11.80;2.67;;;14.00;99.90;;;;;;5026516;28;20234;-71
2022/10/03 08:45:51;;;;;;;8.87;2.43;;;14.00;99.90;;;;;;5017553;28;20207;-71
2022/10/03 08:48:47;;;;;;;8.57;2.57;;;13.90;99.90;;;;;;5017843;28;20208;-69
2022/10/03 08:51:41;;;;;;;4.43;1.83;;;13.80;99.90;;;;;;5030178;28;20260;-69
2022/10/03 08:54:51;;;;;;;9.13;2.47;;;13.90;99.90;;;;;;5017264;28;20298;-70
2022/10/03 08:57:24;;;;;;;9.57;2.03;;;14.10;99.90;;;;;;5021525;28;20210;-69
2022/10/03 09:00:07;;;;;;;10.03;2.43;;;14.30;99.90;;;;;;5021483;28;20218;-69
2022/10/03 09:02:59;;;;;;;9.63;2.33;;;14.40;99.90;;;;;;5018452;28;20190;-69
2022/10/03 09:06:02;;;;;;;11.60;2.60;;;14.40;99.90;;;;;;5021275;28;20269;-69
2022/10/03 09:08:41;;;;;;;11.63;2.73;;;14.50;99.90;;;;;;5024556;28;20696;-69
2022/10/03 09:11:40;;;;;;;8.23;2.43;;;14.50;99.90;;;;;;5021519;28;20198;-69
2022/10/03 09:14:26;;;;;;;10.03;2.43;;;14.40;99.90;;;;;;5016118;28;20199;-69
2022/10/03 09:16:57;;;;;;;12.30;1.97;;;14.40;99.90;;;;;;5022391;28;20183;-68
2022/10/03 09:19:51;;;;;;;9.13;2.53;;;14.40;99.90;;;;;;5013935;28;20238;-69
2022/10/03 09:22:51;;;;;;;9.63;1.93;;;14.60;99.90;;;;;;5021549;28;20192;-69
2022/10/03 09:25:39;;;;;;;10.77;2.67;;;14.60;99.90;;;;;;5018912;28;20251;-70
2022/10/03 09:28:41;;;;;;;8.90;2.30;;;14.80;99.90;;;;;;5022758;28;20408;-70
2022/10/03 09:31:23;;;;;;;4.80;2.17;;;14.90;99.90;;;;;;5023030;28;20187;-69
2022/10/03 09:33:57;;;;;;;14.17;3.13;;;14.90;99.90;;;;;;5022187;28;20199;-69
2022/10/03 09:36:36;;;;;;;8.90;2.20;;;14.90;99.90;;;;;;5021241;28;20273;-69
2022/10/03 09:39:17;;;;;;;10.37;2.70;;;15.10;99.90;;;;;;5018103;28;20203;-69
2022/10/03 09:42:20;;;;;;;8.77;1.63;;;15.20;99.90;;;;;;5019832;28;20643;-69
2022/10/03 09:45:09;;;;;;;10.57;2.20;;;15.30;99.90;;;;;;5020201;28;20199;-69
2022/10/03 09:47:59;;;;;;;9.40;2.90;;;15.30;99.90;;;;;;5021492;28;20529;-69
2022/10/03 09:51:02;;;;;;;5.73;2.10;;;15.30;99.90;;;;;;5024458;28;20214;-69
2022/10/03 09:53:52;;;;;;;9.97;2.20;;;15.50;99.90;;;;;;5019034;28;20215;-70
2022/10/03 09:56:32;;;;;;;10.20;2.70;;;15.60;99.90;;;;;;5020698;28;20180;-70
2022/10/03 09:59:37;;;;;;;7.57;1.80;;;15.60;99.90;;;;;;5019678;28;20284;-69
2022/10/03 10:02:02;;;;;;;9.67;2.43;;;15.40;99.90;;;;;;5025091;28;20262;-70
2022/10/03 10:04:59;;;;;;;8.60;2.07;;;15.20;99.90;;;;;;5025429;28;20358;-70
2022/10/03 10:07:34;;;;;;;6.00;2.60;;;15.20;99.90;;;;;;5020272;28;20196;-70
2022/10/03 10:10:47;;;;;;;7.30;2.27;;;15.30;99.90;;;;;;5019353;28;20226;-69
2022/10/03 10:13:19;;;;;;;9.00;2.63;;;15.40;99.90;;;;;;5020051;28;20257;-69
2022/10/03 10:16:21;;;;;;;9.20;1.90;;;15.50;99.90;;;;;;5019902;28;20278;-68
2022/10/03 10:19:06;;;;;;;11.10;2.40;;;15.40;99.90;;;;;;5021092;28;20183;-68
2022/10/03 10:21:56;;;;;;;8.00;2.03;;;15.20;99.90;;;;;;5024718;28;20179;-69
2022/10/03 10:24:45;;;;;;;5.67;1.67;;;15.40;99.90;;;;;;5021695;28;20203;-69
2022/10/03 10:27:16;;;;;;;12.87;2.63;;;15.70;99.90;;;;;;5017198;28;20633;-69
2022/10/03 10:30:05;;;;;;;7.97;2.00;;;15.80;99.90;;;;;;5009772;28;20215;-69
2022/10/03 10:33:22;;;;;;;6.07;2.20;;;15.90;99.90;;;;;;5017690;28;20285;-69
2022/10/03 10:36:20;;;;;;;8.07;2.20;;;16.00;99.90;;;;;;5012336;28;20192;-69
2022/10/03 10:39:31;;;;;;;8.93;2.67;;;16.00;99.90;;;;;;5011770;28;20196;-68
2022/10/03 10:42:36;;;;;;;7.70;1.87;;;16.10;99.90;;;;;;5016520;28;20199;-70
2022/10/03 10:45:40;;;;;;;6.47;1.73;;;16.30;99.90;;;;;;5005519;28;20207;-71
2022/10/03 10:49:03;;;;;;;3.27;1.53;;;16.70;99.90;;;;;;5007841;28;20191;-71
2022/10/03 10:51:57;;;;;;;7.77;1.80;;;16.90;99.90;;;;;;5006467;28;20222;-71
2022/10/03 10:55:02;;;;;;;9.10;2.77;;;16.90;99.90;;;;;;5022029;28;20202;-72
2022/10/03 10:57:46;;;;;;;6.47;1.70;;;16.90;99.90;;;;;;5025357;28;20600;-71
2022/10/03 11:00:32;;;;;;;8.63;2.13;;;16.90;99.90;;;;;;5012606;28;20218;-69
2022/10/03 11:03:39;;;;;;;6.83;1.90;;;16.60;99.90;;;;;;5018513;28;20211;-71
2022/10/03 11:06:26;;;;;;;10.67;1.93;;;16.50;99.90;;;;;;5003589;28;20211;-72
2022/10/03 11:09:13;;;;;;;6.47;1.50;;;16.40;99.90;;;;;;5005989;28;20239;-74
2022/10/03 11:12:12;;;;;;;4.23;1.77;;;16.30;99.90;;;;;;5010459;28;20176;-74
2022/10/03 11:15:04;;;;;;;8.50;2.87;;;16.30;99.90;;;;;;5009521;28;20196;-72
2022/10/03 11:18:07;;;;;;;7.70;1.93;;;16.40;99.90;;;;;;5013285;28;20226;-71
2022/10/03 11:21:10;;;;;;;5.17;1.90;;;16.40;99.90;;;;;;5013224;28;20237;-71
2022/10/03 11:23:57;;;;;;;9.23;2.87;;;16.30;99.90;;;;;;5009026;28;20172;-70
2022/10/03 11:26:53;;;;;;;7.33;2.00;;;16.20;99.90;;;;;;5008174;28;20180;-70
2022/10/03 11:30:13;;;;;;;8.23;2.13;;;16.20;99.90;;;;;;5010805;28;20811;-71
2022/10/03 11:33:14;;;;;;;4.77;1.20;;;16.10;99.90;;;;;;5000453;28;20565;-71
2022/10/03 11:36:12;;;;;;;4.23;1.73;;;16.00;99.90;;;;;;5003967;28;20200;-70
2022/10/03 11:39:04;;;;;;;5.63;1.63;;;15.90;99.90;;;;;;5008727;28;20238;-71
2022/10/03 11:41:53;;;;;;;7.67;1.77;;;16.00;99.90;;;;;;5013619;28;20188;-70
2022/10/03 11:44:26;;;;;;;8.63;1.70;;;16.10;99.90;;;;;;5008139;28;20305;-70
2022/10/03 11:47:15;;;;;;;9.80;1.90;;;16.10;99.90;;;;;;5010216;28;20199;-71
2022/10/03 11:50:03;;;;;;;4.13;1.50;;;16.10;99.90;;;;;;5014748;28;20310;-69
2022/10/03 11:52:42;;;;;;;8.93;1.93;;;16.20;99.90;;;;;;5012560;28;20224;-73
2022/10/03 11:55:27;;;;;;;6.77;2.00;;;16.30;99.90;;;;;;5008478;28;20231;-71
2022/10/03 11:58:19;;;;;;;6.57;1.73;;;16.30;99.90;;;;;;5014671;28;20188;-71
2022/10/03 12:00:51;;;;;;;5.33;1.20;;;16.20;99.90;;;;;;5010594;28;20561;-72
2022/10/03 12:03:25;;;;;;;4.00;1.67;;;16.20;99.90;;;;;;5018315;28;20192;-72
2022/10/03 12:09:16;;;;;;;6.67;2.27;;;16.20;99.90;;;;;;5011808;28;20664;-71
2022/10/03 12:12:12;;;;;;;10.70;2.70;;;16.20;99.90;;;;;;5020111;28;20184;-71
2022/10/03 12:14:45;;;;;;;8.33;2.37;;;16.40;99.90;;;;;;5023064;28;20211;-72
2022/10/03 12:17:14;;;;;;;7.27;2.03;;;17.00;99.90;;;;;;5025341;28;20176;-71
2022/10/03 12:20:02;;;;;;;11.93;2.70;;;17.30;99.90;;;;;;5029358;28;20741;-71
2022/10/03 12:22:54;;;;;;;9.40;2.73;;;18.00;99.90;;;;;;5022334;28;20187;-71
2022/10/03 12:25:29;;;;;;;5.63;1.97;;;18.30;99.90;;;;;;5022245;28;20204;-72
2022/10/03 12:28:20;;;;;;;5.17;2.10;;;17.90;99.90;;;;;;5025404;28;20201;-71
2022/10/03 12:30:56;;;;;;;6.73;1.93;;;17.40;99.90;;;;;;5009900;28;20204;-75
2022/10/03 12:33:58;;;;;;;7.93;1.67;;;17.10;99.90;;;;;;5010172;28;20282;-74
2022/10/03 12:36:33;;;;;;;3.73;1.53;;;17.30;99.90;;;;;;5003697;28;20273;-72
2022/10/03 12:39:22;;;;;;;5.93;1.70;;;18.10;99.90;;;;;;5011532;28;20539;-70
2022/10/03 12:42:16;;;;;;;6.03;1.47;;;19.20;99.90;;;;;;5024740;28;20265;-74
2022/10/03 12:44:58;;;;;;;4.37;2.27;;;20.10;99.90;;;;;;5011746;28;20192;-71
2022/10/03 12:47:50;;;;;;;4.93;1.60;;;19.80;99.90;;;;;;5024534;28;20225;-70
2022/10/03 12:50:58;;;;;;;8.43;2.30;;;18.80;99.90;;;;;;5016703;28;20619;-70
2022/10/03 12:53:37;;;;;;;4.87;1.40;;;18.10;99.90;;;;;;5013359;28;20219;-70
2022/10/03 12:56:43;;;;;;;4.63;1.63;;;17.60;99.90;;;;;;5024869;28;20674;-69
2022/10/03 12:59:16;;;;;;;6.53;1.60;;;17.60;99.90;;;;;;5038801;28;20188;-70
2022/10/03 13:02:14;;;;;;;5.90;2.10;;;17.50;99.90;;;;;;5017919;28;20337;-79
2022/10/03 13:05:17;;;;;;;6.10;1.70;;;17.20;99.90;;;;;;5019766;28;20654;-78
2022/10/03 13:07:56;;;;;;;2.30;1.00;;;17.80;99.90;;;;;;5026322;28;20210;-75
2022/10/03 13:10:42;;;;;;;4.63;1.33;;;19.20;99.90;;;;;;5007727;28;20303;-78
2022/10/03 13:13:38;;;;;;;3.77;1.33;;;20.60;99.90;;;;;;5015423;28;20267;-78
2022/10/03 13:16:30;;;;;;;3.80;1.40;;;20.80;99.00;;;;;;5010712;28;20205;-78
2022/10/03 13:19:07;;;;;;;1.93;0.93;;;21.30;97.70;;;;;;5026734;28;20274;-78
2022/10/03 13:22:02;;;;;;;4.27;1.63;;;20.90;96.20;;;;;;5016009;28;20205;-79
2022/10/03 13:24:38;;;;;;;3.40;1.03;;;19.50;98.20;;;;;;5024936;28;20197;-77
2022/10/03 13:27:31;;;;;;;9.63;1.60;;;19.20;99.20;;;;;;5020610;28;20195;-79
2022/10/03 13:30:05;;;;;;;4.17;1.67;;;19.60;98.30;;;;;;5022799;28;20205;-77
2022/10/03 13:32:43;;;;;;;7.03;1.37;;;19.00;98.80;;;;;;5022865;28;20469;-77
2022/10/03 13:36:04;;;;;;;3.87;1.03;;;18.80;99.50;;;;;;5021081;28;20687;-71
2022/10/03 13:38:57;;;;;;;2.37;1.50;;;18.60;99.90;;;;;;5016592;28;20186;-78
2022/10/03 13:41:31;;;;;;;4.30;1.47;;;18.50;99.90;;;;;;5012449;28;20203;-79
2022/10/03 13:44:22;;;;;;;4.07;1.40;;;18.50;99.90;;;;;;5009973;28;20185;-78
2022/10/03 13:47:09;;;;;;;3.50;1.20;;;19.20;99.90;;;;;;5021258;28;20608;-76
2022/10/03 13:49:50;;;;;;;3.97;1.43;;;19.90;98.70;;;;;;5023298;28;20308;-79
2022/10/03 13:52:41;;;;;;;7.03;2.13;;;21.40;97.20;;;;;;5022412;28;20254;-80
2022/10/03 13:55:17;;;;;;;4.60;1.27;;;21.80;95.70;;;;;;5021211;28;20202;-78
2022/10/03 13:58:04;;;;;;;4.00;1.53;;;21.60;96.20;;;;;;5024224;28;20178;-78
2022/10/03 14:00:45;;;;;;;3.00;1.70;;;21.90;95.50;;;;;;5021772;28;20535;-81
2022/10/03 14:03:23;;;;;;;4.37;1.37;;;20.90;95.90;;;;;;5022294;28;20331;-81
2022/10/03 14:06:40;;;;;;;8.33;1.93;;;19.60;97.50;;;;;;5021058;28;20259;-82
2022/10/03 14:09:54;;;;;;;6.13;1.80;;;18.40;99.60;;;;;;4998279;28;20809;-78
2022/10/03 14:12:50;;;;;;;4.17;1.70;;;18.00;99.90;;;;;;5005191;28;21077;-79
2022/10/03 14:15:23;;;;;;;6.80;1.80;;;19.70;99.60;;;;;;5008813;28;20205;-80
2022/10/03 14:18:20;;;;;;;5.63;1.77;;;21.20;97.70;;;;;;5014323;28;20187;-79
2022/10/03 14:20:52;;;;;;;5.03;2.03;;;22.60;95.60;;;;;;5020495;28;20290;-79
2022/10/03 14:24:00;;;;;;;7.37;1.43;;;23.10;94.40;;;;;;5029420;28;20212;-78
2022/10/03 14:27:02;;;;;;;5.53;2.10;;;22.40;94.50;;;;;;5016910;28;20289;-78
2022/10/03 14:30:01;;;;;;;5.23;1.93;;;21.80;95.10;;;;;;5024905;28;20207;-77
2022/10/03 14:32:36;;;;;;;6.30;2.03;;;21.30;95.50;;;;;;5025296;28;20186;-78
2022/10/03 14:35:14;;;;;;;5.17;1.77;;;20.30;95.70;;;;;;5019890;28;20291;-78
2022/10/03 14:37:52;;;;;;;6.67;2.30;;;19.60;96.90;;;;;;5022780;28;20178;-78
2022/10/03 14:40:26;;;;;;;5.77;1.43;;;19.10;97.50;;;;;;5022630;28;20213;-76
2022/10/03 14:43:05;;;;;;;4.67;2.07;;;18.90;97.80;;;;;;5014858;28;20240;-86
2022/10/03 14:45:44;;;;;;;6.87;2.07;;;18.70;98.40;;;;;;5024444;28;20549;-82
2022/10/03 14:48:23;;;;;;;5.77;1.70;;;18.30;98.60;;;;;;5024966;28;20234;-84